Time;durP1;ratioP1;P1;durP2;ratioP2;P2;SDS_P1;SDS_P2;PMS_P1;PMS_P2;Temp;Humidity;BMP_temperature;BMP_pressure;BME280_temperature;BME280_humidity;BME280_pressure;Samples;Min_cycle;Max_cycle;Signal;HPM_P1;HPM_P2
2022/03/05 00:01:07;;;;;;;20.85;13.43;;;0.60;99.90;;;;;;5033848;28;20044;-57
2022/03/05 00:03:33;;;;;;;20.92;13.07;;;0.60;99.90;;;;;;5033583;28;20182;-57
2022/03/05 00:05:58;;;;;;;20.48;13.27;;;0.50;99.90;;;;;;5034445;28;20471;-58
2022/03/05 00:08:24;;;;;;;20.35;12.18;;;0.60;99.90;;;;;;5053854;28;20076;-58
2022/03/05 00:10:50;;;;;;;20.83;13.30;;;0.60;99.90;;;;;;5053729;28;20049;-59
2022/03/05 00:13:15;;;;;;;19.35;12.77;;;0.60;99.90;;;;;;5035712;28;20056;-58
2022/03/05 00:15:43;;;;;;;18.90;12.73;;;0.60;99.90;;;;;;5053487;28;20048;-58
2022/03/05 00:18:09;;;;;;;20.63;13.13;;;0.50;99.90;;;;;;5034206;28;20052;-59
2022/03/05 00:20:34;;;;;;;20.50;13.00;;;0.50;99.90;;;;;;5033822;28;20037;-58
2022/03/05 00:23:00;;;;;;;18.25;12.50;;;0.50;99.90;;;;;;5033521;28;20037;-58
2022/03/05 00:25:26;;;;;;;20.30;12.75;;;0.50;99.90;;;;;;5033430;28;20065;-58
2022/03/05 00:27:52;;;;;;;19.98;13.32;;;0.50;99.90;;;;;;5032487;28;20044;-59
2022/03/05 00:30:18;;;;;;;20.58;12.45;;;0.50;99.90;;;;;;5053668;28;20043;-58
2022/03/05 00:32:45;;;;;;;20.35;12.68;;;0.50;99.90;;;;;;5035792;28;20044;-58
2022/03/05 00:35:11;;;;;;;19.80;13.15;;;0.40;99.90;;;;;;5053111;28;20477;-58
2022/03/05 00:37:38;;;;;;;17.88;12.13;;;0.40;99.90;;;;;;5038694;28;20038;-58
2022/03/05 00:40:04;;;;;;;21.77;13.15;;;0.40;99.90;;;;;;5033315;28;20319;-58
2022/03/05 00:42:30;;;;;;;18.00;12.40;;;0.30;99.90;;;;;;5033737;28;20046;-58
2022/03/05 00:44:56;;;;;;;17.38;12.13;;;0.30;99.90;;;;;;5032912;28;20477;-58
2022/03/05 00:47:21;;;;;;;18.33;12.35;;;0.30;99.90;;;;;;5045407;28;20479;-59
2022/03/05 00:49:47;;;;;;;18.73;12.30;;;0.30;99.90;;;;;;5053165;28;20037;-58
2022/03/05 00:52:12;;;;;;;19.75;12.35;;;0.30;99.90;;;;;;5054855;28;20033;-58
2022/03/05 00:54:38;;;;;;;20.02;12.30;;;0.30;99.90;;;;;;5056801;28;20500;-58
2022/03/05 00:57:03;;;;;;;20.58;13.23;;;0.20;99.90;;;;;;5047155;28;20041;-58
2022/03/05 00:59:29;;;;;;;20.25;13.13;;;0.20;99.90;;;;;;5037318;28;20168;-59
2022/03/05 01:01:56;;;;;;;19.08;12.25;;;0.30;99.90;;;;;;5036391;28;20045;-58
2022/03/05 01:04:22;;;;;;;20.23;12.40;;;0.20;99.90;;;;;;5019094;28;20041;-58
2022/03/05 01:06:47;;;;;;;21.23;11.90;;;0.20;99.90;;;;;;5043898;28;20049;-58
2022/03/05 01:09:13;;;;;;;20.17;12.57;;;0.20;99.90;;;;;;5056947;28;20036;-58
2022/03/05 01:11:39;;;;;;;19.23;12.13;;;0.20;99.90;;;;;;5039294;28;20041;-60
2022/03/05 01:14:07;;;;;;;20.02;12.77;;;0.20;99.90;;;;;;5056118;28;20338;-58
2022/03/05 01:16:34;;;;;;;19.73;12.85;;;0.20;99.90;;;;;;5033591;28;20056;-58
2022/03/05 01:19:00;;;;;;;19.60;12.23;;;0.20;99.90;;;;;;5036878;28;20041;-58
2022/03/05 01:21:27;;;;;;;19.23;12.38;;;0.20;99.90;;;;;;5019293;28;20461;-58
2022/03/05 01:23:53;;;;;;;16.90;11.55;;;0.20;99.90;;;;;;5036300;28;20041;-59
2022/03/05 01:26:18;;;;;;;18.90;11.60;;;0.20;99.90;;;;;;5039714;28;20033;-58
2022/03/05 01:28:44;;;;;;;20.50;12.57;;;0.10;99.90;;;;;;5056523;28;20063;-58
2022/03/05 01:31:10;;;;;;;19.70;11.88;;;0.10;99.90;;;;;;5056358;28;20551;-58
2022/03/05 01:33:35;;;;;;;17.98;12.00;;;0.10;99.90;;;;;;5055988;28;20036;-58
2022/03/05 01:36:01;;;;;;;19.88;11.95;;;0.10;99.90;;;;;;5055350;28;20060;-58
2022/03/05 01:38:27;;;;;;;17.88;11.65;;;0.10;99.90;;;;;;5019111;28;20080;-58
2022/03/05 01:40:53;;;;;;;19.85;12.57;;;0.00;99.90;;;;;;5036410;28;20156;-58
2022/03/05 01:43:18;;;;;;;17.83;12.05;;;0.00;99.90;;;;;;5035890;28;20038;-58
2022/03/05 01:45:44;;;;;;;19.05;12.52;;;-0.10;99.90;;;;;;5036246;28;20049;-59
2022/03/05 01:48:09;;;;;;;20.60;12.25;;;-0.10;99.90;;;;;;5054176;28;20481;-59
2022/03/05 01:50:35;;;;;;;19.65;12.40;;;-0.10;99.90;;;;;;5056089;28;20033;-59
2022/03/05 01:53:01;;;;;;;19.15;12.40;;;-0.10;99.90;;;;;;5055890;28;20428;-58
2022/03/05 01:55:27;;;;;;;17.73;11.73;;;-0.10;99.90;;;;;;5055992;28;20478;-59
2022/03/05 01:57:53;;;;;;;19.63;11.93;;;-0.10;99.90;;;;;;5039730;28;20080;-58
2022/03/05 02:00:19;;;;;;;19.83;12.40;;;-0.10;99.90;;;;;;5036008;28;20045;-58
2022/03/05 02:02:46;;;;;;;19.00;11.77;;;-0.20;99.90;;;;;;5034972;28;20371;-58
2022/03/05 02:05:13;;;;;;;18.30;11.80;;;-0.20;99.90;;;;;;5034810;28;20049;-58
2022/03/05 02:07:39;;;;;;;19.00;11.98;;;-0.10;99.90;;;;;;5049455;28;20045;-58
2022/03/05 02:10:06;;;;;;;19.02;11.77;;;-0.20;99.90;;;;;;5055756;28;20116;-58
2022/03/05 02:12:34;;;;;;;17.55;11.63;;;-0.20;99.90;;;;;;5055655;28;20064;-58
2022/03/05 02:15:00;;;;;;;17.23;11.70;;;-0.20;99.90;;;;;;5055693;28;20041;-58
2022/03/05 02:17:27;;;;;;;19.63;11.63;;;-0.20;99.90;;;;;;5043223;28;20052;-58
2022/03/05 02:19:53;;;;;;;17.08;11.40;;;-0.30;99.90;;;;;;5035659;28;20071;-59
2022/03/05 02:22:19;;;;;;;20.17;11.90;;;-0.30;99.90;;;;;;5017911;28;20045;-58
2022/03/05 02:24:45;;;;;;;19.23;11.88;;;-0.30;99.90;;;;;;5035025;28;20033;-60
2022/03/05 02:27:10;;;;;;;18.60;11.98;;;-0.30;99.90;;;;;;5045182;28;20461;-59
2022/03/05 02:29:37;;;;;;;16.48;10.93;;;-0.30;99.90;;;;;;5055178;28;20055;-58
2022/03/05 02:32:04;;;;;;;20.30;11.20;;;-0.30;99.90;;;;;;5054791;28;20508;-58
2022/03/05 02:34:30;;;;;;;17.77;11.35;;;-0.30;99.90;;;;;;5055026;28;20114;-58
2022/03/05 02:36:56;;;;;;;19.70;10.98;;;-0.40;99.90;;;;;;5047178;28;20119;-59
2022/03/05 02:39:25;;;;;;;20.40;11.18;;;-0.40;99.90;;;;;;5035165;28;20053;-59
2022/03/05 02:41:52;;;;;;;17.30;11.32;;;-0.40;99.90;;;;;;5035122;28;20095;-59
2022/03/05 02:44:17;;;;;;;17.65;11.50;;;-0.40;99.90;;;;;;5034805;28;20051;-58
2022/03/05 02:46:43;;;;;;;16.40;10.65;;;-0.50;99.90;;;;;;5040661;28;20033;-58
2022/03/05 02:49:09;;;;;;;20.55;12.23;;;-0.40;99.90;;;;;;5054895;28;20029;-58
2022/03/05 02:51:35;;;;;;;18.15;10.88;;;-0.40;99.90;;;;;;5054909;28;20124;-59
2022/03/05 02:54:01;;;;;;;19.30;11.10;;;-0.40;99.90;;;;;;5054308;28;20339;-60
2022/03/05 02:56:27;;;;;;;19.48;11.15;;;-0.40;99.90;;;;;;5051074;28;20029;-58
2022/03/05 02:58:52;;;;;;;18.25;11.20;;;-0.40;99.90;;;;;;5034920;28;20481;-59
2022/03/05 03:01:18;;;;;;;17.50;10.90;;;-0.40;99.90;;;;;;5034458;28;20454;-58
2022/03/05 03:03:44;;;;;;;17.77;11.15;;;-0.50;99.90;;;;;;5034382;28;20052;-59
2022/03/05 03:06:09;;;;;;;19.17;11.23;;;-0.50;99.90;;;;;;5035198;28;20049;-59
2022/03/05 03:08:35;;;;;;;17.38;11.65;;;-0.50;99.90;;;;;;5054628;28;20041;-59
2022/03/05 03:11:00;;;;;;;17.73;10.73;;;-0.50;99.90;;;;;;5054428;28;20033;-58
2022/03/05 03:13:26;;;;;;;19.00;11.40;;;-0.50;99.90;;;;;;5054255;28;20453;-59
2022/03/05 03:15:52;;;;;;;18.98;11.57;;;-0.50;99.90;;;;;;5053730;28;20041;-58
2022/03/05 03:18:18;;;;;;;19.23;11.35;;;-0.60;99.90;;;;;;5035538;28;20042;-59
2022/03/05 03:20:44;;;;;;;16.55;10.38;;;-0.50;99.90;;;;;;5034507;28;20599;-59
2022/03/05 03:23:10;;;;;;;16.33;10.30;;;-0.50;99.90;;;;;;5016517;28;20042;-59
2022/03/05 03:25:38;;;;;;;16.10;9.90;;;-0.60;99.90;;;;;;5034354;28;20037;-60
2022/03/05 03:28:05;;;;;;;19.33;10.52;;;-0.50;99.90;;;;;;5050570;28;20073;-58
2022/03/05 03:30:31;;;;;;;16.38;10.52;;;-0.50;99.90;;;;;;5036608;28;20450;-58
2022/03/05 03:32:56;;;;;;;16.55;10.00;;;-0.60;99.90;;;;;;5053694;28;20045;-60
2022/03/05 03:35:22;;;;;;;17.67;9.80;;;-0.60;99.90;;;;;;5054159;28;20044;-59
2022/03/05 03:37:48;;;;;;;17.52;10.57;;;-0.60;99.90;;;;;;5039414;28;20046;-59
2022/03/05 03:40:16;;;;;;;16.75;10.48;;;-0.60;99.90;;;;;;5033938;28;20041;-59
2022/03/05 03:42:42;;;;;;;16.08;10.32;;;-0.60;99.90;;;;;;5033766;28;20053;-58
2022/03/05 03:45:09;;;;;;;16.90;10.48;;;-0.60;99.90;;;;;;5033764;28;20482;-59
2022/03/05 03:47:36;;;;;;;18.88;10.55;;;-0.60;99.90;;;;;;5046280;28;20041;-59
2022/03/05 03:50:03;;;;;;;17.05;10.55;;;-0.60;99.90;;;;;;5053966;28;20063;-59
2022/03/05 03:52:29;;;;;;;18.63;10.50;;;-0.60;99.90;;;;;;5053768;28;20041;-59
2022/03/05 03:54:54;;;;;;;18.05;10.68;;;-0.60;99.90;;;;;;5053876;28;20067;-59
2022/03/05 03:57:20;;;;;;;14.50;9.52;;;-0.60;99.90;;;;;;5043309;28;20048;-58
2022/03/05 03:59:47;;;;;;;16.33;10.45;;;-0.60;99.90;;;;;;5033984;28;20033;-58
2022/03/05 04:02:13;;;;;;;17.80;10.15;;;-0.60;99.90;;;;;;5033834;28;20118;-58
2022/03/05 04:04:38;;;;;;;16.27;9.93;;;-0.70;99.90;;;;;;5033365;28;20502;-58
2022/03/05 04:09:48;;;;;;;15.47;9.67;;;-0.70;99.90;;;;;;5053885;28;20101;-59
2022/03/05 04:12:14;;;;;;;17.00;9.35;;;-0.70;99.90;;;;;;5053531;28;20759;-59
2022/03/05 04:14:39;;;;;;;15.25;9.68;;;-0.80;99.90;;;;;;5053373;28;20125;-58
2022/03/05 04:17:06;;;;;;;16.58;10.13;;;-0.70;99.90;;;;;;5045080;28;20049;-58
2022/03/05 04:19:32;;;;;;;17.75;10.23;;;-0.70;99.90;;;;;;5033932;28;20050;-58
2022/03/05 04:21:57;;;;;;;14.15;9.38;;;-0.80;99.90;;;;;;5033917;28;20052;-60
2022/03/05 04:24:23;;;;;;;15.85;9.80;;;-0.80;99.90;;;;;;5033033;28;20049;-59
2022/03/05 04:26:49;;;;;;;16.08;9.95;;;-0.80;99.90;;;;;;5039912;28;20047;-59
2022/03/05 04:29:14;;;;;;;14.50;8.95;;;-0.80;99.90;;;;;;5057561;28;20036;-58
2022/03/05 04:31:40;;;;;;;16.95;8.93;;;-0.80;99.90;;;;;;5057480;28;20044;-59
2022/03/05 04:34:05;;;;;;;16.50;9.18;;;-0.90;99.90;;;;;;5057209;28;20043;-58
2022/03/05 04:36:31;;;;;;;16.35;9.82;;;-0.80;99.90;;;;;;5053651;28;20116;-59
2022/03/05 04:38:57;;;;;;;16.70;10.60;;;-0.80;99.90;;;;;;5037681;28;20498;-58
2022/03/05 04:41:23;;;;;;;17.35;10.10;;;-0.80;99.90;;;;;;5037587;28;20037;-59
2022/03/05 04:43:48;;;;;;;16.10;9.95;;;-0.80;99.90;;;;;;5037027;28;20100;-59
2022/03/05 04:46:15;;;;;;;14.10;8.85;;;-0.80;99.90;;;;;;5038091;28;20038;-58
2022/03/05 04:48:41;;;;;;;16.02;9.75;;;-0.80;99.90;;;;;;5057012;28;20045;-58
2022/03/05 04:51:06;;;;;;;17.55;9.68;;;-0.80;99.90;;;;;;5056941;28;20175;-58
2022/03/05 04:53:32;;;;;;;17.70;9.70;;;-0.80;99.90;;;;;;5056564;28;20123;-59
2022/03/05 04:55:58;;;;;;;17.52;9.57;;;-0.80;99.90;;;;;;5057073;28;20045;-60
2022/03/05 04:58:23;;;;;;;19.02;9.68;;;-0.90;99.90;;;;;;5038149;28;20042;-59
2022/03/05 05:00:49;;;;;;;16.67;9.50;;;-0.90;99.90;;;;;;5036820;28;20048;-58
2022/03/05 05:03:15;;;;;;;18.50;10.70;;;-1.00;99.90;;;;;;5036287;28;20049;-59
2022/03/05 05:05:40;;;;;;;19.38;10.80;;;-1.00;99.90;;;;;;5036657;28;20060;-58
2022/03/05 05:08:06;;;;;;;17.55;9.50;;;-1.00;99.90;;;;;;5052928;28;20519;-58
2022/03/05 05:10:32;;;;;;;20.27;10.93;;;-0.90;99.90;;;;;;5056912;28;20043;-59
2022/03/05 05:12:57;;;;;;;18.15;10.98;;;-1.00;99.90;;;;;;5056614;28;20368;-59
2022/03/05 05:15:23;;;;;;;19.70;11.00;;;-1.00;99.90;;;;;;5056523;28;20048;-59
2022/03/05 05:17:49;;;;;;;17.23;10.48;;;-1.00;99.90;;;;;;5025154;28;20111;-58
2022/03/05 05:20:14;;;;;;;18.60;10.43;;;-1.00;99.90;;;;;;5036815;28;20041;-58
2022/03/05 05:22:41;;;;;;;19.35;10.18;;;-1.10;99.90;;;;;;5036358;28;20059;-58
2022/03/05 05:25:07;;;;;;;18.63;11.07;;;-1.10;99.90;;;;;;5036263;28;20346;-58
2022/03/05 05:27:40;;;;;;;17.85;10.70;;;-1.00;99.90;;;;;;5047963;28;20067;-59
2022/03/05 05:30:07;;;;;;;20.65;10.82;;;-1.10;99.90;;;;;;5056170;28;20048;-58
2022/03/05 05:32:33;;;;;;;20.05;11.02;;;-1.10;99.90;;;;;;5038296;28;20068;-58
2022/03/05 05:34:59;;;;;;;19.08;10.60;;;-1.10;99.90;;;;;;5056576;28;20037;-60
2022/03/05 05:37:24;;;;;;;19.38;11.07;;;-1.10;99.90;;;;;;5045822;28;20065;-59
2022/03/05 05:39:50;;;;;;;18.38;11.18;;;-1.00;99.90;;;;;;5018721;28;20432;-59
2022/03/05 05:42:15;;;;;;;20.10;11.35;;;-1.10;99.90;;;;;;5036079;28;20049;-58
2022/03/05 05:44:41;;;;;;;23.25;12.07;;;-1.10;99.90;;;;;;5036062;28;20501;-59
2022/03/05 05:47:07;;;;;;;23.25;11.40;;;-1.10;99.90;;;;;;5043413;28;20048;-58
2022/03/05 05:49:34;;;;;;;20.98;11.70;;;-1.10;99.90;;;;;;5056031;28;20041;-59
2022/03/05 05:52:00;;;;;;;20.42;11.63;;;-1.10;99.90;;;;;;5056254;28;20041;-59
2022/03/05 05:54:26;;;;;;;20.60;11.60;;;-1.20;99.90;;;;;;5055667;28;20041;-59
2022/03/05 05:56:51;;;;;;;20.75;11.30;;;-1.20;99.90;;;;;;5010068;28;20053;-58
2022/03/05 05:59:17;;;;;;;22.02;12.20;;;-1.20;99.90;;;;;;5015456;28;20049;-59
2022/03/05 06:01:42;;;;;;;22.35;11.82;;;-1.10;99.90;;;;;;5015413;28;20042;-59
2022/03/05 06:04:08;;;;;;;19.25;11.07;;;-1.10;99.90;;;;;;4997686;28;20030;-60
2022/03/05 06:06:34;;;;;;;21.48;11.95;;;-1.20;99.90;;;;;;4999848;28;20049;-58
2022/03/05 06:08:59;;;;;;;22.35;12.00;;;-1.20;99.90;;;;;;5015494;28;20038;-59
2022/03/05 06:11:25;;;;;;;21.38;11.82;;;-1.20;99.90;;;;;;5021728;28;20051;-58
2022/03/05 06:13:52;;;;;;;21.88;12.13;;;-1.20;99.90;;;;;;5034851;28;20060;-59
2022/03/05 06:16:18;;;;;;;23.67;12.82;;;-1.20;99.90;;;;;;5035520;28;20367;-58
2022/03/05 06:18:45;;;;;;;18.33;10.90;;;-1.30;99.90;;;;;;5035196;28;20107;-58
2022/03/05 06:21:10;;;;;;;22.83;12.18;;;-1.30;99.90;;;;;;5034987;28;20033;-59
2022/03/05 06:23:37;;;;;;;20.98;11.65;;;-1.20;99.90;;;;;;5034605;28;20037;-58
2022/03/05 06:26:03;;;;;;;21.95;11.55;;;-1.20;99.90;;;;;;5017218;28;20033;-58
2022/03/05 06:28:29;;;;;;;22.00;11.93;;;-1.20;99.90;;;;;;5035886;28;20113;-58
2022/03/05 06:30:56;;;;;;;21.83;12.30;;;-1.20;99.90;;;;;;5000817;28;20429;-59
2022/03/05 06:33:22;;;;;;;21.63;12.25;;;-1.30;99.90;;;;;;5034481;28;20115;-58
2022/03/05 06:35:47;;;;;;;23.40;12.68;;;-1.10;99.90;;;;;;5034478;28;20459;-58
2022/03/05 06:38:14;;;;;;;22.88;12.27;;;-1.20;99.90;;;;;;5018115;28;20025;-58
2022/03/05 06:40:40;;;;;;;21.38;12.05;;;-1.20;99.90;;;;;;5034686;28;20098;-60
2022/03/05 06:43:05;;;;;;;22.00;12.15;;;-1.00;99.90;;;;;;5034359;28;20046;-58
2022/03/05 06:45:31;;;;;;;20.80;11.05;;;-1.00;99.90;;;;;;5034766;28;20068;-59
2022/03/05 06:47:57;;;;;;;21.30;11.82;;;-0.90;99.90;;;;;;5035222;28;20072;-58
2022/03/05 06:50:23;;;;;;;23.38;12.55;;;-0.80;99.90;;;;;;5016739;28;20080;-58
2022/03/05 06:52:48;;;;;;;22.27;11.73;;;-0.80;99.90;;;;;;5034272;28;20474;-59
2022/03/05 06:55:16;;;;;;;21.33;12.13;;;-0.80;99.90;;;;;;5034420;28;20048;-58
2022/03/05 06:57:42;;;;;;;21.92;12.27;;;-0.70;99.90;;;;;;5034968;28;20077;-59
2022/03/05 07:00:09;;;;;;;22.10;11.77;;;-0.70;99.90;;;;;;5034356;28;20037;-58
2022/03/05 07:02:38;;;;;;;21.58;12.52;;;-0.60;99.90;;;;;;5033433;28;20175;-59
2022/03/05 07:05:04;;;;;;;22.63;11.95;;;-0.60;99.90;;;;;;5016695;28;20116;-58
2022/03/05 07:07:29;;;;;;;22.85;12.25;;;-0.50;99.90;;;;;;5034954;28;20052;-58
2022/03/05 07:09:55;;;;;;;22.42;12.40;;;-0.50;99.90;;;;;;5034167;28;20033;-59
2022/03/05 07:12:21;;;;;;;25.15;14.25;;;-0.40;99.90;;;;;;5033370;28;20085;-58
2022/03/05 07:14:48;;;;;;;24.10;14.63;;;-0.30;99.90;;;;;;5034169;28;20045;-58
2022/03/05 07:17:18;;;;;;;24.10;15.82;;;-0.30;99.90;;;;;;5041735;28;20040;-59
2022/03/05 07:19:44;;;;;;;23.95;14.30;;;-0.20;99.90;;;;;;5054454;28;20106;-58
2022/03/05 07:22:10;;;;;;;18.58;11.40;;;-0.10;99.90;;;;;;5053999;28;20033;-58
2022/03/05 07:24:36;;;;;;;21.60;12.68;;;0.00;99.90;;;;;;5041109;28;20103;-58
2022/03/05 07:27:02;;;;;;;20.75;12.75;;;0.10;99.90;;;;;;5040509;28;20051;-58
2022/03/05 07:29:28;;;;;;;20.58;11.73;;;0.10;99.90;;;;;;5054466;28;20083;-58
2022/03/05 07:31:53;;;;;;;21.45;11.98;;;0.00;99.90;;;;;;5054038;28;20040;-58
2022/03/05 07:34:21;;;;;;;22.35;12.32;;;0.20;99.90;;;;;;5050883;28;20442;-61
2022/03/05 07:36:46;;;;;;;21.73;11.93;;;0.30;99.90;;;;;;5017279;28;20045;-58
2022/03/05 07:39:12;;;;;;;20.58;12.13;;;0.40;99.90;;;;;;5013676;28;20087;-59
2022/03/05 07:41:38;;;;;;;20.48;11.52;;;0.40;99.90;;;;;;5001821;28;20125;-59
2022/03/05 07:44:09;;;;;;;20.92;11.88;;;0.50;99.90;;;;;;5032931;28;20052;-57
2022/03/05 07:46:37;;;;;;;21.30;12.35;;;0.60;99.90;;;;;;5035659;28;20048;-58
2022/03/05 07:49:04;;;;;;;19.02;11.75;;;0.60;99.90;;;;;;5031046;28;20040;-58
2022/03/05 07:51:30;;;;;;;22.65;12.48;;;0.70;99.90;;;;;;5016063;28;20041;-58
2022/03/05 07:53:56;;;;;;;20.17;11.43;;;0.80;99.90;;;;;;5033186;28;20049;-58
2022/03/05 07:56:21;;;;;;;19.45;11.77;;;0.90;99.90;;;;;;5033858;28;20060;-58
2022/03/05 07:58:56;;;;;;;18.98;11.90;;;1.00;99.90;;;;;;5042843;28;20037;-59
2022/03/05 08:01:27;;;;;;;19.70;11.50;;;1.10;99.90;;;;;;5000132;28;20045;-58
2022/03/05 08:03:53;;;;;;;18.83;11.85;;;1.20;99.90;;;;;;5033550;28;20102;-58
2022/03/05 08:06:19;;;;;;;19.70;11.55;;;1.20;99.90;;;;;;5033342;28;20042;-59
2022/03/05 08:08:44;;;;;;;19.77;11.80;;;1.30;99.90;;;;;;5053386;28;20040;-58
2022/03/05 08:11:11;;;;;;;18.92;11.15;;;1.50;99.90;;;;;;5053741;28;20102;-56
2022/03/05 08:13:37;;;;;;;19.52;11.40;;;1.60;99.90;;;;;;5053450;28;20040;-58
2022/03/05 08:16:03;;;;;;;19.17;11.70;;;1.50;99.90;;;;;;5053591;28;20037;-59
2022/03/05 08:18:28;;;;;;;19.70;11.77;;;1.60;99.90;;;;;;5018132;28;20069;-59
2022/03/05 08:20:54;;;;;;;19.17;11.60;;;1.70;99.90;;;;;;5015642;28;20091;-60
2022/03/05 08:23:20;;;;;;;19.90;12.27;;;1.70;99.90;;;;;;5033436;28;20132;-58
2022/03/05 08:25:45;;;;;;;18.65;11.25;;;1.80;99.90;;;;;;5026825;28;20037;-60
2022/03/05 08:28:11;;;;;;;18.30;11.35;;;1.80;99.90;;;;;;5044009;28;20044;-58
2022/03/05 08:30:37;;;;;;;19.13;12.00;;;2.00;99.90;;;;;;5013548;28;20462;-60
2022/03/05 08:33:02;;;;;;;18.25;11.82;;;2.00;99.90;;;;;;5029948;28;20029;-59
2022/03/05 08:35:28;;;;;;;19.05;11.75;;;2.10;99.90;;;;;;5031052;28;20454;-60
2022/03/05 08:37:54;;;;;;;18.88;11.95;;;2.10;99.90;;;;;;5043372;28;20102;-59
2022/03/05 08:40:23;;;;;;;19.35;11.98;;;2.20;99.90;;;;;;5048784;28;20037;-62
2022/03/05 08:42:49;;;;;;;20.00;12.48;;;2.30;99.90;;;;;;5030359;28;20053;-59
2022/03/05 08:45:15;;;;;;;21.65;13.23;;;2.20;99.90;;;;;;5029732;28;20103;-60
2022/03/05 08:47:44;;;;;;;21.00;13.32;;;2.40;99.90;;;;;;5043733;28;20037;-59
2022/03/05 08:50:10;;;;;;;21.60;13.25;;;2.50;99.90;;;;;;5035160;28;20467;-57
2022/03/05 08:52:36;;;;;;;19.05;12.00;;;2.60;99.90;;;;;;5014759;28;20056;-59
2022/03/05 08:55:04;;;;;;;21.65;13.40;;;2.60;99.90;;;;;;5032955;28;20045;-59
2022/03/05 08:57:30;;;;;;;22.40;13.30;;;2.70;99.90;;;;;;5042704;28;20036;-59
2022/03/05 08:59:56;;;;;;;20.83;12.75;;;2.80;99.90;;;;;;5040673;28;20040;-60
2022/03/05 09:02:21;;;;;;;20.48;13.65;;;2.80;99.90;;;;;;5032681;28;20958;-59
2022/03/05 09:04:47;;;;;;;21.20;13.05;;;2.90;99.90;;;;;;5032925;28;20085;-60
2022/03/05 09:07:13;;;;;;;22.85;12.68;;;3.00;99.90;;;;;;5038276;28;20454;-60
2022/03/05 09:09:38;;;;;;;20.90;13.35;;;3.10;99.90;;;;;;5050805;28;20037;-59
2022/03/05 09:12:05;;;;;;;24.90;13.80;;;3.10;99.90;;;;;;5050995;28;20134;-60
2022/03/05 09:14:30;;;;;;;20.85;13.43;;;3.10;99.90;;;;;;5028753;28;20049;-58
2022/03/05 09:16:56;;;;;;;22.13;13.25;;;3.20;99.90;;;;;;5035410;28;20044;-59
2022/03/05 09:19:22;;;;;;;22.55;14.00;;;3.20;99.90;;;;;;5034138;28;20055;-59
2022/03/05 09:21:48;;;;;;;22.50;13.25;;;3.20;99.90;;;;;;5034188;28;20041;-60
2022/03/05 09:24:13;;;;;;;21.70;13.70;;;3.30;99.90;;;;;;5017745;28;20391;-59
2022/03/05 09:26:39;;;;;;;21.90;13.30;;;3.50;99.90;;;;;;5020648;28;20439;-60
2022/03/05 09:29:05;;;;;;;22.58;14.25;;;3.50;99.90;;;;;;5056478;28;20033;-60
2022/03/05 09:31:31;;;;;;;23.10;13.88;;;3.50;99.90;;;;;;5056682;28;20106;-59
2022/03/05 09:33:57;;;;;;;22.60;13.57;;;3.70;99.90;;;;;;5056112;28;20037;-61
2022/03/05 09:36:23;;;;;;;23.75;13.95;;;3.70;99.90;;;;;;5055599;28;20374;-59
2022/03/05 09:38:49;;;;;;;22.55;14.57;;;3.70;99.90;;;;;;5036672;28;20041;-59
2022/03/05 09:41:15;;;;;;;26.17;15.32;;;3.80;99.90;;;;;;5015122;28;20107;-60
2022/03/05 09:43:43;;;;;;;27.05;15.73;;;3.70;99.90;;;;;;5030488;28;20096;-60
2022/03/05 09:46:10;;;;;;;24.20;14.32;;;3.80;99.90;;;;;;4998880;28;20104;-61
2022/03/05 09:48:39;;;;;;;24.70;14.77;;;3.80;99.90;;;;;;5052649;28;20037;-61
2022/03/05 09:51:04;;;;;;;26.52;15.02;;;3.90;99.90;;;;;;5055593;28;20091;-60
2022/03/05 09:53:31;;;;;;;23.70;14.70;;;4.10;99.90;;;;;;5038083;28;20390;-60
2022/03/05 09:55:59;;;;;;;24.55;15.10;;;4.20;99.90;;;;;;5034980;28;20068;-60
2022/03/05 09:58:24;;;;;;;26.10;14.90;;;4.20;99.90;;;;;;5018595;28;20083;-60
2022/03/05 10:00:51;;;;;;;24.20;14.43;;;4.10;99.90;;;;;;5016199;28;20061;-59
2022/03/05 10:03:21;;;;;;;26.40;15.63;;;4.20;99.90;;;;;;5034521;28;20042;-63
2022/03/05 10:05:47;;;;;;;25.70;16.15;;;4.30;99.90;;;;;;5022986;28;20151;-60
2022/03/05 10:08:20;;;;;;;29.23;15.57;;;4.30;99.90;;;;;;5016794;28;20467;-60
2022/03/05 10:10:48;;;;;;;25.58;14.77;;;4.40;99.90;;;;;;5015242;28;20375;-60
2022/03/05 10:13:31;;;;;;;24.67;15.20;;;4.50;99.90;;;;;;5014735;28;20098;-60
2022/03/05 10:16:01;;;;;;;25.77;14.77;;;4.50;99.90;;;;;;5015370;28;20112;-60
2022/03/05 10:18:39;;;;;;;27.33;15.93;;;4.60;99.90;;;;;;4996906;28;20109;-60
2022/03/05 10:21:07;;;;;;;24.70;14.77;;;4.70;99.90;;;;;;4977652;28;20038;-61
2022/03/05 10:23:36;;;;;;;26.13;14.93;;;4.70;99.90;;;;;;4977190;28;20038;-60
2022/03/05 10:26:05;;;;;;;26.60;16.55;;;4.70;99.90;;;;;;4978546;28;20117;-61
2022/03/05 10:28:31;;;;;;;24.70;15.20;;;4.80;99.90;;;;;;5030004;28;20405;-58
2022/03/05 10:31:07;;;;;;;26.38;15.80;;;4.90;99.90;;;;;;5015582;28;20037;-61
2022/03/05 10:33:35;;;;;;;28.52;15.82;;;5.00;99.90;;;;;;5015391;28;20050;-58
2022/03/05 10:36:06;;;;;;;28.48;16.15;;;5.00;99.90;;;;;;4998254;28;20099;-59
2022/03/05 10:38:54;;;;;;;27.95;15.60;;;4.90;99.90;;;;;;5014698;28;20124;-58
2022/03/05 10:41:30;;;;;;;27.45;15.27;;;5.00;99.90;;;;;;5035301;28;20086;-59
2022/03/05 10:44:15;;;;;;;26.50;15.88;;;5.10;99.90;;;;;;5015975;28;20363;-59
2022/03/05 10:46:45;;;;;;;28.58;14.75;;;5.20;99.90;;;;;;5016753;28;20090;-59
2022/03/05 10:49:22;;;;;;;27.13;15.43;;;5.60;99.90;;;;;;5017282;28;20382;-59
2022/03/05 10:51:50;;;;;;;24.13;14.10;;;6.00;99.90;;;;;;5017098;28;20515;-58
2022/03/05 10:54:40;;;;;;;24.35;12.75;;;6.20;99.90;;;;;;5034794;28;20077;-59
2022/03/05 10:57:22;;;;;;;29.45;15.50;;;6.30;99.90;;;;;;5029594;28;20109;-59
2022/03/05 10:59:53;;;;;;;25.23;14.60;;;6.50;99.90;;;;;;4997750;28;20081;-58
2022/03/05 11:02:21;;;;;;;26.80;14.80;;;6.50;99.90;;;;;;5014613;28;20053;-58
2022/03/05 11:04:48;;;;;;;29.40;15.55;;;6.50;99.90;;;;;;5017844;28;20467;-59
2022/03/05 11:07:17;;;;;;;23.63;13.90;;;6.50;99.90;;;;;;5040614;28;20071;-59
2022/03/05 11:09:44;;;;;;;25.50;14.75;;;6.40;99.90;;;;;;5054322;28;20385;-59
2022/03/05 11:12:16;;;;;;;25.38;14.35;;;6.50;99.90;;;;;;5036728;28;20052;-59
2022/03/05 11:14:48;;;;;;;29.58;15.15;;;6.50;99.90;;;;;;5023878;28;20508;-59
2022/03/05 11:17:14;;;;;;;27.67;15.45;;;6.50;99.90;;;;;;5023631;28;20041;-59
2022/03/05 11:19:40;;;;;;;25.70;15.45;;;6.60;99.90;;;;;;5027142;28;20065;-59
2022/03/05 11:22:08;;;;;;;26.45;14.57;;;6.50;99.90;;;;;;4995545;28;20455;-59
2022/03/05 11:24:39;;;;;;;24.75;15.38;;;6.60;99.90;;;;;;4996954;28;20119;-59
2022/03/05 11:27:05;;;;;;;27.73;15.13;;;6.60;99.90;;;;;;5024327;28;20029;-60
2022/03/05 11:29:52;;;;;;;27.23;14.23;;;6.70;99.90;;;;;;5046003;28;20084;-60
2022/03/05 11:32:18;;;;;;;28.98;15.57;;;6.70;99.90;;;;;;5032950;28;20103;-59
2022/03/05 11:34:49;;;;;;;27.42;15.15;;;6.50;99.90;;;;;;5019163;28;20379;-59
2022/03/05 11:37:24;;;;;;;25.35;14.82;;;6.50;99.90;;;;;;5026463;28;20047;-60
2022/03/05 11:39:50;;;;;;;26.88;14.98;;;6.40;99.90;;;;;;5053930;28;20473;-60
2022/03/05 11:42:32;;;;;;;28.88;16.65;;;6.30;99.90;;;;;;5053407;28;20040;-60
2022/03/05 11:45:01;;;;;;;27.33;15.60;;;6.40;99.90;;;;;;5054133;28;20041;-59
2022/03/05 11:47:31;;;;;;;27.45;14.75;;;6.50;99.90;;;;;;5047864;28;20358;-60
2022/03/05 11:49:58;;;;;;;28.48;15.57;;;6.50;99.90;;;;;;5054026;28;20041;-59
2022/03/05 11:52:43;;;;;;;25.30;14.63;;;6.50;99.90;;;;;;5021206;28;20105;-60
2022/03/05 11:55:18;;;;;;;29.80;15.35;;;6.50;99.90;;;;;;5033477;28;20049;-59
2022/03/05 11:57:50;;;;;;;26.70;15.73;;;6.40;99.90;;;;;;5031044;28;20393;-60
2022/03/05 12:00:24;;;;;;;25.60;15.25;;;6.50;99.90;;;;;;5033510;28;20343;-60
2022/03/05 12:02:55;;;;;;;27.00;15.25;;;6.60;99.90;;;;;;5015612;28;20378;-59
2022/03/05 12:05:47;;;;;;;26.00;14.55;;;6.60;99.90;;;;;;5025236;28;20074;-60
2022/03/05 12:08:13;;;;;;;24.73;14.30;;;6.70;99.90;;;;;;5023336;28;20068;-61
2022/03/05 12:10:39;;;;;;;28.88;15.95;;;6.70;99.90;;;;;;5033844;28;20458;-60
2022/03/05 12:13:10;;;;;;;27.23;15.45;;;6.80;99.90;;;;;;5015677;28;20049;-60
2022/03/05 12:15:41;;;;;;;27.00;15.82;;;6.70;99.90;;;;;;5017323;28;20129;-59
2022/03/05 12:18:12;;;;;;;27.33;16.15;;;6.60;99.90;;;;;;5026006;28;20060;-60
2022/03/05 12:20:39;;;;;;;30.27;16.35;;;6.50;99.90;;;;;;5033622;28;20046;-60
2022/03/05 12:23:10;;;;;;;29.77;15.63;;;6.50;99.90;;;;;;5029792;28;20030;-59
2022/03/05 12:25:39;;;;;;;32.65;16.40;;;6.60;99.90;;;;;;5013966;28;20052;-60
2022/03/05 12:28:12;;;;;;;25.38;15.07;;;6.70;99.90;;;;;;5013324;28;20044;-60
2022/03/05 12:30:38;;;;;;;26.50;15.75;;;6.70;99.90;;;;;;5011115;28;20099;-60
2022/03/05 12:33:16;;;;;;;26.20;15.48;;;6.70;99.90;;;;;;5011024;28;20057;-60
2022/03/05 12:35:43;;;;;;;26.88;15.93;;;6.80;99.90;;;;;;4994478;28;20042;-60